Airfield :
LOGIN :

Register | Disclaimer

   EN    FR    IT 

 










Legend :    VFR   Marginal VFR   IFR   Intensive IFR   Very Intensive IFR
Visi :
Ceiling :
>= 8 km
>= 3000ft
5 to 8 km
1000 to 3000 ft
1500m to 5 km
500 to 1000 ft
800 to 1500m
200 to 500 ft
< 800m
< 200 ft
Symbols :   Thunderstorms  Fog  Heavy snow  Heavy precipitations  Wind > 20 kt
SIGMETs :     Misc.  Thunderstorms  Icing  Turbulence  Mountain Waves  Volcanic Ashes







- Airport Elevation : 16 ft
- IATA code : EAS


LESO - San Sebastian Fuenterrabia

CURRENT METAR :
  • 181900Z 29009KT 250V340 9999 SCT017 BKN030 12/10 Q1024

EXPIRED METARs :
  • 181830Z 30009KT 260V350 9999 BKN017 12/10 Q1024
  • 181800Z 27011G23KT 170V340 6000 -RA SCT012 BKN017 11/10 Q1024
  • 181739Z 26010G23KT 210V330 9000 -RA BKN010 OVC017 11/10 Q1023
  • 181730Z 25008G23KT 200V320 3000 +RA SCT010 BKN015 11/10 Q1023
  • 181700Z 28006G17KT 190V350 7000 -RA SCT010 BKN015 11/10 Q1023
  • 181648Z 26007KT 210V330 3500 DZ SCT008 BKN013 11/10 Q1023
  • 181630Z 26007KT 200V320 9999 BKN015 11/09 Q1024

TAF TAF LESO
Valid from the 18 at 18:00 until the 19 at 18:00 UTC


181700Z 1818/1918 29009KT 9999 BKN015 TX13/1915Z TN09/1907Z
TEMPO 1818/1909 30015G28KT
TEMPO 1818/1918 3000 RA SHRA BKN010 SCT020TCU
PROB40
TEMPO 1818/1909 1500 +RA SHRA BKN010 BKN020TCU
No reported NOTAMs for that airfield.



MET'MAP, your aeronautical weather chart ! - Copyright ORBIFLY December 2007 - Disclaimer

ORBIFLY MET'MAP TEAM :

Programming & Development : Alexandra Zaïnal
Concept & Development : Baudouin d'Aumeries
Co-Development & Prog : Marc-Olivier Méhu
Technical & hardware support : Manuel Goepfert

Contact : metmap@orbifly.com




SOURCES & CREDITS :

   NOAA